sensor_id;sensor_type;location;lat;lon;timestamp;pressure;altitude;pressure_sealevel;temperature;humidity
64876;BME280;51369;49.862;9.908;2023-02-19T00:00:03;98657.69;;;11.74;73.40
64876;BME280;51369;49.862;9.908;2023-02-19T00:02:38;98658.56;;;11.74;72.79
64876;BME280;51369;49.862;9.908;2023-02-19T00:05:03;98656.81;;;11.73;73.21
64876;BME280;51369;49.862;9.908;2023-02-19T00:07:29;98648.75;;;11.72;72.71
64876;BME280;51369;49.862;9.908;2023-02-19T00:09:55;98644.31;;;11.71;73.74
64876;BME280;51369;49.862;9.908;2023-02-19T00:12:20;98655.19;;;11.69;74.05
64876;BME280;51369;49.862;9.908;2023-02-19T00:14:46;98647.13;;;11.68;73.46
64876;BME280;51369;49.862;9.908;2023-02-19T00:17:11;98639.09;;;11.66;73.33
64876;BME280;51369;49.862;9.908;2023-02-19T00:19:36;98648.16;;;11.65;73.43
64876;BME280;51369;49.862;9.908;2023-02-19T00:22:01;98644.56;;;11.65;72.81
64876;BME280;51369;49.862;9.908;2023-02-19T00:24:27;98640.97;;;11.64;73.26
64876;BME280;51369;49.862;9.908;2023-02-19T00:26:52;98632.88;;;11.64;73.47
64876;BME280;51369;49.862;9.908;2023-02-19T00:29:19;98624.75;;;11.64;72.94
64876;BME280;51369;49.862;9.908;2023-02-19T00:31:46;98620.28;;;11.63;72.53
64876;BME280;51369;49.862;9.908;2023-02-19T00:34:12;98605.94;;;11.61;72.45
64876;BME280;51369;49.862;9.908;2023-02-19T00:36:39;98597.84;;;11.61;73.21
64876;BME280;51369;49.862;9.908;2023-02-19T00:39:06;98619.47;;;11.61;73.55
64876;BME280;51369;49.862;9.908;2023-02-19T00:41:33;98624.00;;;11.61;73.09
64876;BME280;51369;49.862;9.908;2023-02-19T00:44:06;98630.50;;;11.57;72.99
64876;BME280;51369;49.862;9.908;2023-02-19T00:46:35;98632.25;;;11.58;72.78
64876;BME280;51369;49.862;9.908;2023-02-19T00:49:02;98623.25;;;11.57;72.99
64876;BME280;51369;49.862;9.908;2023-02-19T00:51:30;98609.81;;;11.56;74.06
64876;BME280;51369;49.862;9.908;2023-02-19T00:53:56;98619.75;;;11.55;73.48
64876;BME280;51369;49.862;9.908;2023-02-19T00:56:22;98601.75;;;11.54;73.08
64876;BME280;51369;49.862;9.908;2023-02-19T00:58:47;98590.94;;;11.54;73.74
64876;BME280;51369;49.862;9.908;2023-02-19T01:01:14;98593.72;;;11.53;73.52
64876;BME280;51369;49.862;9.908;2023-02-19T01:03:40;98585.59;;;11.53;73.07
64876;BME280;51369;49.862;9.908;2023-02-19T01:06:07;98590.13;;;11.52;73.89
64876;BME280;51369;49.862;9.908;2023-02-19T01:08:33;98578.56;;;11.49;73.78
64876;BME280;51369;49.862;9.908;2023-02-19T01:11:00;98594.78;;;11.49;73.36
64876;BME280;51369;49.862;9.908;2023-02-19T01:13:26;98580.44;;;11.47;74.18
64876;BME280;51369;49.862;9.908;2023-02-19T01:16:17;98583.22;;;11.45;73.28
64876;BME280;51369;49.862;9.908;2023-02-19T01:18:43;98581.41;;;11.46;74.54
64876;BME280;51369;49.862;9.908;2023-02-19T01:21:14;98578.75;;;11.44;73.86
64876;BME280;51369;49.862;9.908;2023-02-19T01:23:39;98584.16;;;11.44;74.09
64876;BME280;51369;49.862;9.908;2023-02-19T01:26:06;98587.75;;;11.45;73.75
64876;BME280;51369;49.862;9.908;2023-02-19T01:28:32;98579.69;;;11.43;73.98
64876;BME280;51369;49.862;9.908;2023-02-19T01:31:06;98579.78;;;11.41;74.62
64876;BME280;51369;49.862;9.908;2023-02-19T01:33:32;98579.78;;;11.41;74.18
64876;BME280;51369;49.862;9.908;2023-02-19T01:35:58;98573.47;;;11.41;74.29
64876;BME280;51369;49.862;9.908;2023-02-19T01:38:23;98566.31;;;11.40;74.08
64876;BME280;51369;49.862;9.908;2023-02-19T01:40:59;98561.84;;;11.39;74.62
64876;BME280;51369;49.862;9.908;2023-02-19T01:43:26;98560.91;;;11.40;74.52
64876;BME280;51369;49.862;9.908;2023-02-19T01:45:52;98556.44;;;11.39;74.17
64876;BME280;51369;49.862;9.908;2023-02-19T01:48:31;98557.53;;;11.35;74.69
64876;BME280;51369;49.862;9.908;2023-02-19T01:53:33;98543.19;;;11.33;74.47
64876;BME280;51369;49.862;9.908;2023-02-19T01:56:00;98550.50;;;11.31;75.47
64876;BME280;51369;49.862;9.908;2023-02-19T01:58:29;98538.81;;;11.30;75.41
64876;BME280;51369;49.862;9.908;2023-02-19T02:00:57;98540.63;;;11.30;74.82
64876;BME280;51369;49.862;9.908;2023-02-19T02:03:23;98524.47;;;11.28;75.11
64876;BME280;51369;49.862;9.908;2023-02-19T02:06:00;98519.06;;;11.28;75.71
64876;BME280;51369;49.862;9.908;2023-02-19T02:08:27;98524.53;;;11.27;75.54
64876;BME280;51369;49.862;9.908;2023-02-19T02:11:11;98524.47;;;11.28;75.69
64876;BME280;51369;49.862;9.908;2023-02-19T02:13:37;98528.00;;;11.30;75.03
64876;BME280;51369;49.862;9.908;2023-02-19T02:16:16;98534.28;;;11.31;75.79
64876;BME280;51369;49.862;9.908;2023-02-19T02:24:27;98516.97;;;11.35;74.82
64876;BME280;51369;49.862;9.908;2023-02-19T02:27:16;98506.09;;;11.36;74.58
64876;BME280;51369;49.862;9.908;2023-02-19T02:32:39;98514.94;;;11.40;75.28
64876;BME280;51369;49.862;9.908;2023-02-19T02:35:08;98517.53;;;11.43;74.83
64876;BME280;51369;49.862;9.908;2023-02-19T02:37:37;98518.41;;;11.44;75.60
64876;BME280;51369;49.862;9.908;2023-02-19T02:40:06;98509.34;;;11.45;75.39
64876;BME280;51369;49.862;9.908;2023-02-19T02:42:33;98515.56;;;11.47;75.02
64876;BME280;51369;49.862;9.908;2023-02-19T02:45:23;98503.94;;;11.45;74.83
64876;BME280;51369;49.862;9.908;2023-02-19T02:53:34;98489.34;;;11.49;74.87
64876;BME280;51369;49.862;9.908;2023-02-19T02:56:20;98486.56;;;11.50;74.24
64876;BME280;51369;49.862;9.908;2023-02-19T02:58:48;98479.41;;;11.49;74.42
64876;BME280;51369;49.862;9.908;2023-02-19T03:01:22;98482.09;;;11.49;74.59
64876;BME280;51369;49.862;9.908;2023-02-19T03:04:20;98483.03;;;11.48;75.05
64876;BME280;51369;49.862;9.908;2023-02-19T03:06:49;98485.69;;;11.50;75.34
64876;BME280;51369;49.862;9.908;2023-02-19T03:09:21;98483.94;;;11.49;75.08
64876;BME280;51369;49.862;9.908;2023-02-19T03:11:56;98486.56;;;11.50;74.49
64876;BME280;51369;49.862;9.908;2023-02-19T03:14:47;98482.91;;;11.51;74.33
64876;BME280;51369;49.862;9.908;2023-02-19T03:17:53;98491.09;;;11.50;74.39
64876;BME280;51369;49.862;9.908;2023-02-19T03:20:43;98499.13;;;11.51;74.70
64876;BME280;51369;49.862;9.908;2023-02-19T03:23:11;98500.09;;;11.50;74.63
64876;BME280;51369;49.862;9.908;2023-02-19T03:25:38;98481.22;;;11.49;75.02
64876;BME280;51369;49.862;9.908;2023-02-19T03:28:37;98483.84;;;11.50;74.50
64876;BME280;51369;49.862;9.908;2023-02-19T03:31:26;98489.28;;;11.50;75.12
64876;BME280;51369;49.862;9.908;2023-02-19T03:34:01;98487.44;;;11.51;74.26
64876;BME280;51369;49.862;9.908;2023-02-19T03:36:34;98482.03;;;11.51;74.96
64876;BME280;51369;49.862;9.908;2023-02-19T03:39:03;98467.63;;;11.50;74.88
64876;BME280;51369;49.862;9.908;2023-02-19T03:42:02;98489.34;;;11.49;74.10
64876;BME280;51369;49.862;9.908;2023-02-19T03:49:49;98481.16;;;11.50;74.34
64876;BME280;51369;49.862;9.908;2023-02-19T03:55:10;98468.66;;;11.48;74.42
64876;BME280;51369;49.862;9.908;2023-02-19T03:57:48;98474.25;;;11.43;75.17
64876;BME280;51369;49.862;9.908;2023-02-19T04:00:21;98486.97;;;11.41;74.68
64876;BME280;51369;49.862;9.908;2023-02-19T04:03:22;98483.59;;;11.36;74.49
64876;BME280;51369;49.862;9.908;2023-02-19T04:05:50;98489.06;;;11.34;74.77
64876;BME280;51369;49.862;9.908;2023-02-19T04:08:19;98484.59;;;11.33;75.27
64876;BME280;51369;49.862;9.908;2023-02-19T04:10:52;98499.13;;;11.31;75.20
64876;BME280;51369;49.862;9.908;2023-02-19T04:15:56;98481.97;;;11.32;75.50
64876;BME280;51369;49.862;9.908;2023-02-19T04:18:28;98485.63;;;11.31;74.46
64876;BME280;51369;49.862;9.908;2023-02-19T04:20:56;98486.50;;;11.31;75.46
64876;BME280;51369;49.862;9.908;2023-02-19T04:23:25;98484.66;;;11.32;74.87
64876;BME280;51369;49.862;9.908;2023-02-19T04:25:55;98494.53;;;11.33;75.28
64876;BME280;51369;49.862;9.908;2023-02-19T04:28:21;98497.19;;;11.34;74.97
64876;BME280;51369;49.862;9.908;2023-02-19T04:30:46;98486.50;;;11.31;74.81
64876;BME280;51369;49.862;9.908;2023-02-19T04:33:11;98500.97;;;11.30;75.37
64876;BME280;51369;49.862;9.908;2023-02-19T04:35:37;98497.50;;;11.27;75.01
64876;BME280;51369;49.862;9.908;2023-02-19T04:38:02;98492.25;;;11.24;75.34
64876;BME280;51369;49.862;9.908;2023-02-19T04:40:27;98500.47;;;11.21;76.17
64876;BME280;51369;49.862;9.908;2023-02-19T04:42:53;98497.91;;;11.18;76.11
64876;BME280;51369;49.862;9.908;2023-02-19T04:45:18;98497.09;;;11.16;75.15
64876;BME280;51369;49.862;9.908;2023-02-19T04:47:44;98500.81;;;11.13;75.28
64876;BME280;51369;49.862;9.908;2023-02-19T04:50:09;98485.47;;;11.14;75.98
64876;BME280;51369;49.862;9.908;2023-02-19T04:52:35;98501.69;;;11.14;76.13
64876;BME280;51369;49.862;9.908;2023-02-19T04:55:00;98499.88;;;11.14;75.40
64876;BME280;51369;49.862;9.908;2023-02-19T04:57:26;98498.09;;;11.13;75.19
64876;BME280;51369;49.862;9.908;2023-02-19T04:59:51;98500.75;;;11.15;75.81
64876;BME280;51369;49.862;9.908;2023-02-19T05:02:17;98513.38;;;11.14;75.57
64876;BME280;51369;49.862;9.908;2023-02-19T05:04:42;98512.38;;;11.17;75.34
64876;BME280;51369;49.862;9.908;2023-02-19T05:07:08;98507.78;;;11.19;75.11
64876;BME280;51369;49.862;9.908;2023-02-19T05:09:34;98509.59;;;11.18;75.77
64876;BME280;51369;49.862;9.908;2023-02-19T05:11:59;98511.28;;;11.21;75.15
64876;BME280;51369;49.862;9.908;2023-02-19T05:14:25;98512.22;;;11.20;75.30
64876;BME280;51369;49.862;9.908;2023-02-19T05:16:50;98520.34;;;11.20;74.97
64876;BME280;51369;49.862;9.908;2023-02-19T05:19:15;98519.53;;;11.18;75.53
64876;BME280;51369;49.862;9.908;2023-02-19T05:21:41;98513.31;;;11.16;75.37
64876;BME280;51369;49.862;9.908;2023-02-19T05:24:07;98518.84;;;11.13;75.87
64876;BME280;51369;49.862;9.908;2023-02-19T05:26:32;98524.38;;;11.09;75.93
64876;BME280;51369;49.862;9.908;2023-02-19T05:28:58;98531.66;;;11.07;76.01
64876;BME280;51369;49.862;9.908;2023-02-19T05:31:23;98537.19;;;11.04;76.02
64876;BME280;51369;49.862;9.908;2023-02-19T05:33:49;98532.81;;;11.02;75.56
64876;BME280;51369;49.862;9.908;2023-02-19T05:36:19;98539.22;;;10.99;75.66
64876;BME280;51369;49.862;9.908;2023-02-19T05:38:44;98540.16;;;10.98;75.58
64876;BME280;51369;49.862;9.908;2023-02-19T05:43:37;98529.53;;;10.94;76.31
64876;BME280;51369;49.862;9.908;2023-02-19T05:46:03;98539.59;;;10.90;76.36
64876;BME280;51369;49.862;9.908;2023-02-19T05:48:28;98537.91;;;10.88;76.01
64876;BME280;51369;49.862;9.908;2023-02-19T05:51:00;98546.19;;;10.83;76.75
64876;BME280;51369;49.862;9.908;2023-02-19T05:53:25;98534.56;;;10.81;75.89
64876;BME280;51369;49.862;9.908;2023-02-19T05:55:51;98536.47;;;10.79;76.94
64876;BME280;51369;49.862;9.908;2023-02-19T05:58:16;98548.22;;;10.78;77.20
64876;BME280;51369;49.862;9.908;2023-02-19T06:00:41;98549.22;;;10.75;76.57
64876;BME280;51369;49.862;9.908;2023-02-19T06:03:07;98554.56;;;10.77;76.38
64876;BME280;51369;49.862;9.908;2023-02-19T06:05:32;98559.13;;;10.75;76.92
64876;BME280;51369;49.862;9.908;2023-02-19T06:07:57;98543.81;;;10.75;76.70
64876;BME280;51369;49.862;9.908;2023-02-19T06:10:23;98532.13;;;10.75;76.76
64876;BME280;51369;49.862;9.908;2023-02-19T06:12:51;98551.91;;;10.75;76.18
64876;BME280;51369;49.862;9.908;2023-02-19T06:15:17;98558.13;;;10.77;76.59
64876;BME280;51369;49.862;9.908;2023-02-19T06:17:42;98558.94;;;10.80;76.14
64876;BME280;51369;49.862;9.908;2023-02-19T06:20:08;98573.28;;;10.82;76.15
64876;BME280;51369;49.862;9.908;2023-02-19T06:22:33;98566.94;;;10.83;75.75
64876;BME280;51369;49.862;9.908;2023-02-19T06:24:59;98565.03;;;10.85;76.59
64876;BME280;51369;49.862;9.908;2023-02-19T06:27:24;98573.09;;;10.86;75.92
64876;BME280;51369;49.862;9.908;2023-02-19T06:29:50;98572.13;;;10.87;75.56
64876;BME280;51369;49.862;9.908;2023-02-19T06:32:15;98566.63;;;10.90;76.30
64876;BME280;51369;49.862;9.908;2023-02-19T06:34:41;98563.84;;;10.92;75.51
64876;BME280;51369;49.862;9.908;2023-02-19T06:37:06;98552.09;;;10.93;75.63
64876;BME280;51369;49.862;9.908;2023-02-19T06:39:31;98562.84;;;10.94;76.46
64876;BME280;51369;49.862;9.908;2023-02-19T06:41:57;98557.38;;;10.96;75.88
64876;BME280;51369;49.862;9.908;2023-02-19T06:44:23;98571.69;;;10.98;75.85
64876;BME280;51369;49.862;9.908;2023-02-19T06:46:49;98567.13;;;11.00;75.90
64876;BME280;51369;49.862;9.908;2023-02-19T06:49:15;98572.38;;;11.03;75.00
64876;BME280;51369;49.862;9.908;2023-02-19T06:51:41;98579.50;;;11.05;75.31
64876;BME280;51369;49.862;9.908;2023-02-19T06:54:06;98579.38;;;11.08;75.88
64876;BME280;51369;49.862;9.908;2023-02-19T06:56:37;98591.88;;;11.11;74.96
64876;BME280;51369;49.862;9.908;2023-02-19T06:59:09;98580.06;;;11.14;75.23
64876;BME280;51369;49.862;9.908;2023-02-19T07:01:35;98587.28;;;11.13;76.02
64876;BME280;51369;49.862;9.908;2023-02-19T07:04:02;98598.91;;;11.15;75.45
64876;BME280;51369;49.862;9.908;2023-02-19T07:06:28;98592.56;;;11.16;74.73
64876;BME280;51369;49.862;9.908;2023-02-19T07:08:54;98599.66;;;11.19;75.00
64876;BME280;51369;49.862;9.908;2023-02-19T07:11:21;98600.47;;;11.21;74.45
64876;BME280;51369;49.862;9.908;2023-02-19T07:13:46;98609.41;;;11.23;74.78
64876;BME280;51369;49.862;9.908;2023-02-19T07:16:12;98618.25;;;11.26;74.85
64876;BME280;51369;49.862;9.908;2023-02-19T07:18:39;98619.94;;;11.29;75.28
64876;BME280;51369;49.862;9.908;2023-02-19T07:21:07;98628.88;;;11.31;74.34
64876;BME280;51369;49.862;9.908;2023-02-19T07:23:32;98610.84;;;11.31;74.89
64876;BME280;51369;49.862;9.908;2023-02-19T07:25:58;98624.22;;;11.34;75.10
64876;BME280;51369;49.862;9.908;2023-02-19T07:28:23;98624.22;;;11.34;74.67
64876;BME280;51369;49.862;9.908;2023-02-19T07:30:49;98623.16;;;11.38;74.36
64876;BME280;51369;49.862;9.908;2023-02-19T07:33:14;98630.19;;;11.43;74.43
64876;BME280;51369;49.862;9.908;2023-02-19T07:35:47;98630.13;;;11.44;74.06
64876;BME280;51369;49.862;9.908;2023-02-19T07:38:17;98647.97;;;11.48;75.35
64876;BME280;51369;49.862;9.908;2023-02-19T07:40:53;98645.28;;;11.48;74.28
64876;BME280;51369;49.862;9.908;2023-02-19T07:43:19;98641.50;;;11.52;74.78
64876;BME280;51369;49.862;9.908;2023-02-19T07:45:44;98645.91;;;11.55;74.41
64876;BME280;51369;49.862;9.908;2023-02-19T07:48:11;98645.91;;;11.55;74.03
64876;BME280;51369;49.862;9.908;2023-02-19T07:50:36;98662.00;;;11.58;74.45
64876;BME280;51369;49.862;9.908;2023-02-19T07:53:02;98667.28;;;11.61;74.81
64876;BME280;51369;49.862;9.908;2023-02-19T07:55:27;98660.78;;;11.65;74.94
64876;BME280;51369;49.862;9.908;2023-02-19T07:57:53;98659.78;;;11.67;73.87
64876;BME280;51369;49.862;9.908;2023-02-19T08:00:18;98660.66;;;11.68;74.29
64876;BME280;51369;49.862;9.908;2023-02-19T08:02:44;98677.78;;;11.68;74.24
64876;BME280;51369;49.862;9.908;2023-02-19T08:05:26;98665.13;;;11.69;73.42
64876;BME280;51369;49.862;9.908;2023-02-19T08:07:52;98680.47;;;11.68;73.50
64876;BME280;51369;49.862;9.908;2023-02-19T08:10:18;98678.84;;;11.64;73.67
64876;BME280;51369;49.862;9.908;2023-02-19T08:13:02;98709.97;;;11.53;74.38
64876;BME280;51369;49.862;9.908;2023-02-19T08:15:46;98686.09;;;11.42;74.39
64876;BME280;51369;49.862;9.908;2023-02-19T08:18:12;98693.50;;;11.37;74.98
64876;BME280;51369;49.862;9.908;2023-02-19T08:20:38;98699.97;;;11.33;75.15
64876;BME280;51369;49.862;9.908;2023-02-19T08:23:05;98702.75;;;11.31;75.80
64876;BME280;51369;49.862;9.908;2023-02-19T08:25:31;98708.22;;;11.30;76.15
64876;BME280;51369;49.862;9.908;2023-02-19T08:27:56;98709.22;;;11.27;75.11
64876;BME280;51369;49.862;9.908;2023-02-19T08:30:25;98711.03;;;11.27;75.92
64876;BME280;51369;49.862;9.908;2023-02-19T08:32:50;98716.44;;;11.27;75.02
64876;BME280;51369;49.862;9.908;2023-02-19T08:35:16;98731.59;;;11.31;75.70
64876;BME280;51369;49.862;9.908;2023-02-19T08:37:41;98734.94;;;11.37;75.78
64876;BME280;51369;49.862;9.908;2023-02-19T08:40:07;98731.22;;;11.40;75.90
64876;BME280;51369;49.862;9.908;2023-02-19T08:42:32;98743.81;;;11.41;75.46
64876;BME280;51369;49.862;9.908;2023-02-19T08:44:58;98741.09;;;11.41;75.95
64876;BME280;51369;49.862;9.908;2023-02-19T08:47:23;98746.56;;;11.39;75.71
64876;BME280;51369;49.862;9.908;2023-02-19T08:49:48;98755.69;;;11.37;75.84
64876;BME280;51369;49.862;9.908;2023-02-19T08:52:14;98765.63;;;11.36;75.90
64876;BME280;51369;49.862;9.908;2023-02-19T08:54:39;98772.03;;;11.34;75.40
64876;BME280;51369;49.862;9.908;2023-02-19T08:57:04;98781.00;;;11.34;76.09
64876;BME280;51369;49.862;9.908;2023-02-19T08:59:30;98789.13;;;11.34;75.54
64876;BME280;51369;49.862;9.908;2023-02-19T09:01:59;98790.88;;;11.35;75.52
64876;BME280;51369;49.862;9.908;2023-02-19T09:04:24;98798.81;;;11.40;76.17
64876;BME280;51369;49.862;9.908;2023-02-19T09:06:49;98802.28;;;11.44;75.93
64876;BME280;51369;49.862;9.908;2023-02-19T09:09:15;98796.69;;;11.48;76.15
64876;BME280;51369;49.862;9.908;2023-02-19T09:11:41;98809.22;;;11.51;74.91
64876;BME280;51369;49.862;9.908;2023-02-19T09:14:07;98801.84;;;11.54;75.48
64876;BME280;51369;49.862;9.908;2023-02-19T09:16:33;98809.84;;;11.57;74.87
64876;BME280;51369;49.862;9.908;2023-02-19T09:18:58;98808.03;;;11.58;75.82
64876;BME280;51369;49.862;9.908;2023-02-19T09:21:24;98806.31;;;11.55;75.66
64876;BME280;51369;49.862;9.908;2023-02-19T09:23:49;98804.69;;;11.51;75.70
64876;BME280;51369;49.862;9.908;2023-02-19T09:26:15;98812.97;;;11.47;75.45
64876;BME280;51369;49.862;9.908;2023-02-19T09:28:40;98804.09;;;11.43;76.32
64876;BME280;51369;49.862;9.908;2023-02-19T09:31:11;98802.22;;;11.45;76.20
64876;BME280;51369;49.862;9.908;2023-02-19T09:33:41;98805.50;;;11.53;77.54
64876;BME280;51369;49.862;9.908;2023-02-19T09:36:07;98804.19;;;11.63;77.85
64876;BME280;51369;49.862;9.908;2023-02-19T09:38:33;98792.94;;;11.74;78.03
64876;BME280;51369;49.862;9.908;2023-02-19T09:41:05;98791.84;;;11.80;77.55
64876;BME280;51369;49.862;9.908;2023-02-19T09:43:32;98805.94;;;11.88;77.10
64876;BME280;51369;49.862;9.908;2023-02-19T09:46:02;98792.22;;;11.92;76.39
64876;BME280;51369;49.862;9.908;2023-02-19T09:48:28;98793.97;;;11.93;76.09
64876;BME280;51369;49.862;9.908;2023-02-19T09:50:54;98806.56;;;11.94;76.33
64876;BME280;51369;49.862;9.908;2023-02-19T09:53:27;98801.91;;;11.98;76.57
64876;BME280;51369;49.862;9.908;2023-02-19T09:55:54;98812.28;;;12.09;76.08
64876;BME280;51369;49.862;9.908;2023-02-19T09:58:33;98809.28;;;12.15;75.53
64876;BME280;51369;49.862;9.908;2023-02-19T10:01:01;98819.88;;;12.21;75.78
64876;BME280;51369;49.862;9.908;2023-02-19T10:03:30;98807.09;;;12.24;75.35
64876;BME280;51369;49.862;9.908;2023-02-19T10:06:03;98803.28;;;12.28;74.51
64876;BME280;51369;49.862;9.908;2023-02-19T10:08:32;98804.78;;;12.35;75.33
64876;BME280;51369;49.862;9.908;2023-02-19T10:11:00;98803.78;;;12.38;74.57
64876;BME280;51369;49.862;9.908;2023-02-19T10:13:36;98810.06;;;12.38;74.15
64876;BME280;51369;49.862;9.908;2023-02-19T10:16:04;98816.31;;;12.41;74.44
64876;BME280;51369;49.862;9.908;2023-02-19T10:18:37;98818.34;;;12.35;73.83
64876;BME280;51369;49.862;9.908;2023-02-19T10:21:04;98831.00;;;12.35;73.47
64876;BME280;51369;49.862;9.908;2023-02-19T10:23:30;98836.34;;;12.36;73.73
64876;BME280;51369;49.862;9.908;2023-02-19T10:25:56;98826.47;;;12.35;73.90
64876;BME280;51369;49.862;9.908;2023-02-19T10:28:29;98832.81;;;12.34;74.59
64876;BME280;51369;49.862;9.908;2023-02-19T10:31:03;98822.72;;;12.38;73.74
64876;BME280;51369;49.862;9.908;2023-02-19T10:33:29;98832.44;;;12.44;74.74
64876;BME280;51369;49.862;9.908;2023-02-19T10:35:59;98851.38;;;12.44;73.81
64876;BME280;51369;49.862;9.908;2023-02-19T10:38:33;98849.50;;;12.46;73.84
64876;BME280;51369;49.862;9.908;2023-02-19T10:41:03;98860.19;;;12.49;74.11
64876;BME280;51369;49.862;9.908;2023-02-19T10:43:33;98860.13;;;12.50;73.91
64876;BME280;51369;49.862;9.908;2023-02-19T10:46:04;98874.69;;;12.48;73.83
64876;BME280;51369;49.862;9.908;2023-02-19T10:48:34;98871.16;;;12.46;74.13
64876;BME280;51369;49.862;9.908;2023-02-19T10:51:04;98874.06;;;12.41;73.23
64876;BME280;51369;49.862;9.908;2023-02-19T10:53:47;98880.69;;;12.34;73.57
64876;BME280;51369;49.862;9.908;2023-02-19T10:56:14;98878.09;;;12.31;74.17
64876;BME280;51369;49.862;9.908;2023-02-19T10:58:40;98881.94;;;12.25;74.26
64876;BME280;51369;49.862;9.908;2023-02-19T11:01:13;98891.94;;;12.23;74.28
64876;BME280;51369;49.862;9.908;2023-02-19T11:03:39;98891.00;;;12.24;74.40
64876;BME280;51369;49.862;9.908;2023-02-19T11:06:07;98893.53;;;12.29;74.88
64876;BME280;51369;49.862;9.908;2023-02-19T11:08:55;98892.56;;;12.30;74.68
64876;BME280;51369;49.862;9.908;2023-02-19T11:11:37;98889.69;;;12.34;73.96
64876;BME280;51369;49.862;9.908;2023-02-19T11:14:15;98897.53;;;12.41;73.72
64876;BME280;51369;49.862;9.908;2023-02-19T11:16:48;98907.25;;;12.46;74.00
64876;BME280;51369;49.862;9.908;2023-02-19T11:21:53;98914.22;;;12.52;73.53
64876;BME280;51369;49.862;9.908;2023-02-19T11:24:29;98920.66;;;12.49;73.27
64876;BME280;51369;49.862;9.908;2023-02-19T11:26:56;98913.41;;;12.50;72.67
64876;BME280;51369;49.862;9.908;2023-02-19T11:29:23;98915.03;;;12.54;72.71
64876;BME280;51369;49.862;9.908;2023-02-19T11:31:50;98914.84;;;12.58;73.15
64876;BME280;51369;49.862;9.908;2023-02-19T11:37:10;98929.09;;;12.63;73.51
64876;BME280;51369;49.862;9.908;2023-02-19T11:39:35;98924.34;;;12.68;73.30
64876;BME280;51369;49.862;9.908;2023-02-19T11:42:21;98937.84;;;12.70;73.00
64876;BME280;51369;49.862;9.908;2023-02-19T11:47:41;98936.34;;;12.63;73.10
64876;BME280;51369;49.862;9.908;2023-02-19T11:53:38;98933.19;;;12.52;74.58
64876;BME280;51369;49.862;9.908;2023-02-19T11:56:08;98931.38;;;12.52;73.87
64876;BME280;51369;49.862;9.908;2023-02-19T12:10:01;98929.50;;;12.75;74.21
64876;BME280;51369;49.862;9.908;2023-02-19T12:12:40;98921.44;;;12.73;73.00
64876;BME280;51369;49.862;9.908;2023-02-19T12:15:26;98912.63;;;12.68;72.90
64876;BME280;51369;49.862;9.908;2023-02-19T12:21:16;98928.56;;;12.76;72.61
64876;BME280;51369;49.862;9.908;2023-02-19T12:26:42;98924.38;;;12.89;72.23
64876;BME280;51369;49.862;9.908;2023-02-19T12:37:51;98926.91;;;13.14;71.70
64876;BME280;51369;49.862;9.908;2023-02-19T12:40:36;98932.59;;;13.08;72.36
64876;BME280;51369;49.862;9.908;2023-02-19T12:43:13;98944.59;;;13.02;71.15
64876;BME280;51369;49.862;9.908;2023-02-19T12:45:45;98938.41;;;12.98;71.10
64876;BME280;51369;49.862;9.908;2023-02-19T12:48:19;98937.75;;;12.93;72.05
64876;BME280;51369;49.862;9.908;2023-02-19T12:50:54;98938.00;;;12.87;72.57
64876;BME280;51369;49.862;9.908;2023-02-19T12:53:41;98934.53;;;12.84;72.27
64876;BME280;51369;49.862;9.908;2023-02-19T12:56:18;98959.75;;;12.86;71.26
64876;BME280;51369;49.862;9.908;2023-02-19T12:58:52;98951.69;;;12.84;71.05
64876;BME280;51369;49.862;9.908;2023-02-19T13:01:30;98938.94;;;12.86;72.75
64876;BME280;51369;49.862;9.908;2023-02-19T13:04:15;98943.41;;;12.87;71.11
64876;BME280;51369;49.862;9.908;2023-02-19T13:07:19;98945.25;;;12.87;70.60
64876;BME280;51369;49.862;9.908;2023-02-19T13:09:51;98934.34;;;12.88;71.04
64876;BME280;51369;49.862;9.908;2023-02-19T13:12:23;98932.44;;;12.90;71.01
64876;BME280;51369;49.862;9.908;2023-02-19T13:15:00;98916.94;;;12.94;70.60
64876;BME280;51369;49.862;9.908;2023-02-19T13:17:48;98908.88;;;12.92;71.32
64876;BME280;51369;49.862;9.908;2023-02-19T13:20:22;98908.88;;;12.92;70.79
64876;BME280;51369;49.862;9.908;2023-02-19T13:23:06;98921.66;;;12.89;69.55
64876;BME280;51369;49.862;9.908;2023-02-19T13:29:40;98916.94;;;12.94;70.76
64876;BME280;51369;49.862;9.908;2023-02-19T13:35:25;98930.75;;;12.88;70.49
64876;BME280;51369;49.862;9.908;2023-02-19T13:37:54;98915.31;;;12.90;69.69
64876;BME280;51369;49.862;9.908;2023-02-19T13:42:57;98926.81;;;12.95;70.80
64876;BME280;51369;49.862;9.908;2023-02-19T13:45:42;98930.97;;;13.03;70.14
64876;BME280;51369;49.862;9.908;2023-02-19T13:48:30;98928.56;;;13.18;70.22
64876;BME280;51369;49.862;9.908;2023-02-19T14:14:48;98944.91;;;13.76;68.24
64876;BME280;51369;49.862;9.908;2023-02-19T14:17:38;98951.97;;;13.80;69.15
64876;BME280;51369;49.862;9.908;2023-02-19T14:30:24;98944.09;;;13.74;69.27
64876;BME280;51369;49.862;9.908;2023-02-19T14:32:50;98950.84;;;13.65;69.15
64876;BME280;51369;49.862;9.908;2023-02-19T14:35:20;98955.72;;;13.57;68.50
64876;BME280;51369;49.862;9.908;2023-02-19T14:37:47;98959.88;;;13.45;69.16
64876;BME280;51369;49.862;9.908;2023-02-19T14:40:20;98968.63;;;13.31;69.34
64876;BME280;51369;49.862;9.908;2023-02-19T14:42:48;98983.53;;;13.21;70.79
64876;BME280;51369;49.862;9.908;2023-02-19T14:45:16;98994.75;;;13.12;69.72
64876;BME280;51369;49.862;9.908;2023-02-19T14:47:44;98988.97;;;12.99;69.84
64876;BME280;51369;49.862;9.908;2023-02-19T14:50:26;98991.88;;;12.95;69.52
64876;BME280;51369;49.862;9.908;2023-02-19T14:52:55;98999.69;;;13.02;70.52
64876;BME280;51369;49.862;9.908;2023-02-19T14:55:29;99001.44;;;13.03;71.14
64876;BME280;51369;49.862;9.908;2023-02-19T14:57:59;99004.09;;;13.05;70.15
64876;BME280;51369;49.862;9.908;2023-02-19T15:00:35;99001.44;;;13.03;71.29
64876;BME280;51369;49.862;9.908;2023-02-19T15:03:03;99006.88;;;13.03;70.43
64876;BME280;51369;49.862;9.908;2023-02-19T15:05:31;98999.69;;;13.02;70.37